sensor_id;sensor_type;location;lat;lon;timestamp;P1;durP1;ratioP1;P2;durP2;ratioP2
56267;SDS011;42175;46.930;9.532;2022-09-23T00:00:33;4.80;;;2.08;;
56267;SDS011;42175;46.930;9.532;2022-09-23T00:02:59;4.00;;;2.20;;
56267;SDS011;42175;46.930;9.532;2022-09-23T00:05:25;5.53;;;2.25;;
56267;SDS011;42175;46.930;9.532;2022-09-23T00:07:52;4.00;;;1.92;;
56267;SDS011;42175;46.930;9.532;2022-09-23T00:10:19;3.65;;;1.98;;
56267;SDS011;42175;46.930;9.532;2022-09-23T00:12:45;4.35;;;2.20;;
56267;SDS011;42175;46.930;9.532;2022-09-23T00:15:11;3.75;;;2.03;;
56267;SDS011;42175;46.930;9.532;2022-09-23T00:17:37;3.50;;;2.22;;
56267;SDS011;42175;46.930;9.532;2022-09-23T00:20:04;4.10;;;2.22;;
56267;SDS011;42175;46.930;9.532;2022-09-23T00:22:32;3.88;;;2.17;;
56267;SDS011;42175;46.930;9.532;2022-09-23T00:24:57;4.72;;;2.13;;
56267;SDS011;42175;46.930;9.532;2022-09-23T00:27:23;4.35;;;2.20;;
56267;SDS011;42175;46.930;9.532;2022-09-23T00:29:50;3.80;;;1.92;;
56267;SDS011;42175;46.930;9.532;2022-09-23T00:32:16;4.95;;;1.83;;
56267;SDS011;42175;46.930;9.532;2022-09-23T00:34:42;2.92;;;1.88;;
56267;SDS011;42175;46.930;9.532;2022-09-23T00:37:08;4.82;;;2.20;;
56267;SDS011;42175;46.930;9.532;2022-09-23T00:39:35;4.43;;;2.20;;
56267;SDS011;42175;46.930;9.532;2022-09-23T00:42:01;3.13;;;2.10;;
56267;SDS011;42175;46.930;9.532;2022-09-23T00:47:28;3.33;;;2.00;;
56267;SDS011;42175;46.930;9.532;2022-09-23T00:52:41;2.90;;;1.85;;
56267;SDS011;42175;46.930;9.532;2022-09-23T00:55:09;4.35;;;2.20;;
56267;SDS011;42175;46.930;9.532;2022-09-23T00:57:40;5.43;;;2.35;;
56267;SDS011;42175;46.930;9.532;2022-09-23T01:00:07;4.00;;;2.00;;
56267;SDS011;42175;46.930;9.532;2022-09-23T01:02:33;2.67;;;1.75;;
56267;SDS011;42175;46.930;9.532;2022-09-23T01:05:03;5.10;;;2.10;;
56267;SDS011;42175;46.930;9.532;2022-09-23T01:07:30;3.67;;;2.20;;
56267;SDS011;42175;46.930;9.532;2022-09-23T01:09:56;3.28;;;1.90;;
56267;SDS011;42175;46.930;9.532;2022-09-23T01:15:38;3.05;;;2.13;;
56267;SDS011;42175;46.930;9.532;2022-09-23T01:18:20;5.35;;;1.90;;
56267;SDS011;42175;46.930;9.532;2022-09-23T01:27:03;4.85;;;2.05;;
56267;SDS011;42175;46.930;9.532;2022-09-23T01:29:42;2.80;;;1.85;;
56267;SDS011;42175;46.930;9.532;2022-09-23T01:35:02;3.83;;;2.03;;
56267;SDS011;42175;46.930;9.532;2022-09-23T01:42:50;4.82;;;2.13;;
56267;SDS011;42175;46.930;9.532;2022-09-23T01:47:50;4.22;;;1.92;;
56267;SDS011;42175;46.930;9.532;2022-09-23T01:50:25;4.30;;;1.77;;
56267;SDS011;42175;46.930;9.532;2022-09-23T01:53:16;2.95;;;2.20;;
56267;SDS011;42175;46.930;9.532;2022-09-23T01:56:04;3.15;;;1.60;;
56267;SDS011;42175;46.930;9.532;2022-09-23T01:58:46;2.60;;;1.60;;
56267;SDS011;42175;46.930;9.532;2022-09-23T02:01:16;2.83;;;1.98;;
56267;SDS011;42175;46.930;9.532;2022-09-23T02:03:53;3.40;;;2.10;;
56267;SDS011;42175;46.930;9.532;2022-09-23T02:06:29;3.45;;;1.75;;
56267;SDS011;42175;46.930;9.532;2022-09-23T02:09:04;3.33;;;2.17;;
56267;SDS011;42175;46.930;9.532;2022-09-23T02:11:38;3.90;;;2.00;;
56267;SDS011;42175;46.930;9.532;2022-09-23T02:17:06;4.72;;;1.95;;
56267;SDS011;42175;46.930;9.532;2022-09-23T02:19:46;3.38;;;2.10;;
56267;SDS011;42175;46.930;9.532;2022-09-23T02:22:39;3.47;;;1.70;;
56267;SDS011;42175;46.930;9.532;2022-09-23T02:25:05;3.47;;;2.20;;
56267;SDS011;42175;46.930;9.532;2022-09-23T02:27:41;3.28;;;1.92;;
56267;SDS011;42175;46.930;9.532;2022-09-23T02:30:30;2.20;;;1.60;;
56267;SDS011;42175;46.930;9.532;2022-09-23T02:33:05;4.60;;;2.13;;
56267;SDS011;42175;46.930;9.532;2022-09-23T02:35:52;5.68;;;1.85;;
56267;SDS011;42175;46.930;9.532;2022-09-23T02:38:36;5.10;;;1.98;;
56267;SDS011;42175;46.930;9.532;2022-09-23T02:43:44;3.40;;;2.00;;
56267;SDS011;42175;46.930;9.532;2022-09-23T02:46:16;3.05;;;1.98;;
56267;SDS011;42175;46.930;9.532;2022-09-23T02:48:47;4.30;;;2.17;;
56267;SDS011;42175;46.930;9.532;2022-09-23T02:51:20;3.35;;;1.85;;
56267;SDS011;42175;46.930;9.532;2022-09-23T02:53:50;2.92;;;1.60;;
56267;SDS011;42175;46.930;9.532;2022-09-23T02:56:19;3.05;;;1.80;;
56267;SDS011;42175;46.930;9.532;2022-09-23T02:58:50;3.22;;;1.75;;
56267;SDS011;42175;46.930;9.532;2022-09-23T03:04:03;3.45;;;1.77;;
56267;SDS011;42175;46.930;9.532;2022-09-23T03:09:39;3.92;;;1.60;;
56267;SDS011;42175;46.930;9.532;2022-09-23T03:17:46;2.83;;;1.80;;
56267;SDS011;42175;46.930;9.532;2022-09-23T03:22:48;3.10;;;1.70;;
56267;SDS011;42175;46.930;9.532;2022-09-23T03:25:20;2.83;;;1.70;;
56267;SDS011;42175;46.930;9.532;2022-09-23T03:27:49;8.88;;;2.20;;
56267;SDS011;42175;46.930;9.532;2022-09-23T03:30:21;9.43;;;1.90;;
56267;SDS011;42175;46.930;9.532;2022-09-23T03:32:47;4.68;;;1.63;;
56267;SDS011;42175;46.930;9.532;2022-09-23T03:35:15;9.23;;;1.60;;
56267;SDS011;42175;46.930;9.532;2022-09-23T03:38:02;3.92;;;1.60;;
56267;SDS011;42175;46.930;9.532;2022-09-23T03:40:39;7.68;;;1.75;;
56267;SDS011;42175;46.930;9.532;2022-09-23T03:43:11;4.43;;;1.92;;
56267;SDS011;42175;46.930;9.532;2022-09-23T03:45:38;3.05;;;1.80;;
56267;SDS011;42175;46.930;9.532;2022-09-23T03:48:06;3.58;;;1.73;;
56267;SDS011;42175;46.930;9.532;2022-09-23T03:50:33;2.33;;;1.70;;
56267;SDS011;42175;46.930;9.532;2022-09-23T03:52:59;9.45;;;2.88;;
56267;SDS011;42175;46.930;9.532;2022-09-23T03:55:25;3.55;;;2.03;;
56267;SDS011;42175;46.930;9.532;2022-09-23T03:57:51;4.63;;;1.80;;
56267;SDS011;42175;46.930;9.532;2022-09-23T04:00:17;3.38;;;1.63;;
56267;SDS011;42175;46.930;9.532;2022-09-23T04:02:43;2.75;;;1.58;;
56267;SDS011;42175;46.930;9.532;2022-09-23T04:05:10;3.60;;;2.03;;
56267;SDS011;42175;46.930;9.532;2022-09-23T04:07:37;2.80;;;1.70;;
56267;SDS011;42175;46.930;9.532;2022-09-23T04:10:03;3.95;;;1.70;;
56267;SDS011;42175;46.930;9.532;2022-09-23T04:12:29;3.75;;;1.50;;
56267;SDS011;42175;46.930;9.532;2022-09-23T04:14:55;3.00;;;2.20;;
56267;SDS011;42175;46.930;9.532;2022-09-23T04:17:21;3.72;;;1.70;;
56267;SDS011;42175;46.930;9.532;2022-09-23T04:19:47;2.88;;;1.92;;
56267;SDS011;42175;46.930;9.532;2022-09-23T04:22:12;5.53;;;2.08;;
56267;SDS011;42175;46.930;9.532;2022-09-23T04:24:38;4.43;;;2.00;;
56267;SDS011;42175;46.930;9.532;2022-09-23T04:27:04;4.75;;;2.15;;
56267;SDS011;42175;46.930;9.532;2022-09-23T04:29:30;4.07;;;1.60;;
56267;SDS011;42175;46.930;9.532;2022-09-23T04:31:55;5.88;;;1.65;;
56267;SDS011;42175;46.930;9.532;2022-09-23T04:34:21;2.10;;;1.45;;
56267;SDS011;42175;46.930;9.532;2022-09-23T04:36:47;13.40;;;1.80;;
56267;SDS011;42175;46.930;9.532;2022-09-23T04:39:14;4.75;;;2.15;;
56267;SDS011;42175;46.930;9.532;2022-09-23T04:41:41;5.55;;;1.73;;
56267;SDS011;42175;46.930;9.532;2022-09-23T04:44:07;9.75;;;2.22;;
56267;SDS011;42175;46.930;9.532;2022-09-23T04:46:34;13.63;;;2.53;;
56267;SDS011;42175;46.930;9.532;2022-09-23T04:49:00;12.57;;;2.00;;
56267;SDS011;42175;46.930;9.532;2022-09-23T04:51:26;9.75;;;2.03;;
56267;SDS011;42175;46.930;9.532;2022-09-23T04:53:52;4.40;;;1.88;;
56267;SDS011;42175;46.930;9.532;2022-09-23T04:56:20;7.93;;;1.92;;
56267;SDS011;42175;46.930;9.532;2022-09-23T04:58:48;5.22;;;1.52;;
56267;SDS011;42175;46.930;9.532;2022-09-23T05:03:48;4.32;;;1.73;;
56267;SDS011;42175;46.930;9.532;2022-09-23T05:06:14;3.90;;;1.50;;
56267;SDS011;42175;46.930;9.532;2022-09-23T05:08:40;3.35;;;1.70;;
56267;SDS011;42175;46.930;9.532;2022-09-23T05:11:10;5.63;;;2.17;;
56267;SDS011;42175;46.930;9.532;2022-09-23T05:13:36;11.05;;;2.17;;
56267;SDS011;42175;46.930;9.532;2022-09-23T05:16:03;7.03;;;2.03;;
56267;SDS011;42175;46.930;9.532;2022-09-23T05:18:32;6.53;;;2.00;;
56267;SDS011;42175;46.930;9.532;2022-09-23T05:20:59;5.85;;;2.10;;
56267;SDS011;42175;46.930;9.532;2022-09-23T05:23:27;11.18;;;2.72;;
56267;SDS011;42175;46.930;9.532;2022-09-23T05:26:04;11.43;;;2.58;;
56267;SDS011;42175;46.930;9.532;2022-09-23T05:28:32;7.57;;;2.33;;
56267;SDS011;42175;46.930;9.532;2022-09-23T05:31:31;12.02;;;3.00;;
56267;SDS011;42175;46.930;9.532;2022-09-23T05:33:53;12.05;;;3.78;;
56267;SDS011;42175;46.930;9.532;2022-09-23T05:36:21;14.90;;;4.28;;
56267;SDS011;42175;46.930;9.532;2022-09-23T05:38:49;13.98;;;3.42;;
56267;SDS011;42175;46.930;9.532;2022-09-23T05:41:17;18.55;;;4.32;;
56267;SDS011;42175;46.930;9.532;2022-09-23T05:43:44;12.15;;;3.38;;
56267;SDS011;42175;46.930;9.532;2022-09-23T05:46:15;17.20;;;4.85;;
56267;SDS011;42175;46.930;9.532;2022-09-23T05:48:42;15.95;;;3.90;;
56267;SDS011;42175;46.930;9.532;2022-09-23T05:51:12;19.67;;;4.60;;
56267;SDS011;42175;46.930;9.532;2022-09-23T05:53:45;25.08;;;6.65;;
56267;SDS011;42175;46.930;9.532;2022-09-23T05:56:15;14.48;;;3.75;;
56267;SDS011;42175;46.930;9.532;2022-09-23T05:58:42;21.05;;;4.93;;
56267;SDS011;42175;46.930;9.532;2022-09-23T06:01:09;19.60;;;5.45;;
56267;SDS011;42175;46.930;9.532;2022-09-23T06:03:37;20.88;;;4.90;;
56267;SDS011;42175;46.930;9.532;2022-09-23T06:06:03;17.23;;;4.63;;
56267;SDS011;42175;46.930;9.532;2022-09-23T06:08:29;19.48;;;4.85;;
56267;SDS011;42175;46.930;9.532;2022-09-23T06:10:56;14.15;;;4.32;;
56267;SDS011;42175;46.930;9.532;2022-09-23T06:13:22;18.08;;;5.72;;
56267;SDS011;42175;46.930;9.532;2022-09-23T06:15:50;20.98;;;5.05;;
56267;SDS011;42175;46.930;9.532;2022-09-23T06:18:16;10.77;;;3.60;;
56267;SDS011;42175;46.930;9.532;2022-09-23T06:20:42;16.65;;;3.95;;
56267;SDS011;42175;46.930;9.532;2022-09-23T06:23:08;11.95;;;3.78;;
56267;SDS011;42175;46.930;9.532;2022-09-23T06:25:36;9.70;;;3.80;;
56267;SDS011;42175;46.930;9.532;2022-09-23T06:28:02;8.45;;;3.67;;
56267;SDS011;42175;46.930;9.532;2022-09-23T06:30:29;9.98;;;3.55;;
56267;SDS011;42175;46.930;9.532;2022-09-23T06:32:55;12.32;;;3.78;;
56267;SDS011;42175;46.930;9.532;2022-09-23T06:35:25;9.85;;;3.63;;
56267;SDS011;42175;46.930;9.532;2022-09-23T06:37:52;9.45;;;4.10;;
56267;SDS011;42175;46.930;9.532;2022-09-23T06:40:19;11.70;;;3.78;;
56267;SDS011;42175;46.930;9.532;2022-09-23T06:42:46;7.15;;;2.80;;
56267;SDS011;42175;46.930;9.532;2022-09-23T06:45:12;6.97;;;3.22;;
56267;SDS011;42175;46.930;9.532;2022-09-23T06:47:42;10.10;;;3.97;;
56267;SDS011;42175;46.930;9.532;2022-09-23T06:50:09;9.25;;;3.60;;
56267;SDS011;42175;46.930;9.532;2022-09-23T06:52:38;13.85;;;3.05;;
56267;SDS011;42175;46.930;9.532;2022-09-23T06:55:04;7.95;;;3.53;;
56267;SDS011;42175;46.930;9.532;2022-09-23T06:57:31;6.95;;;2.95;;
56267;SDS011;42175;46.930;9.532;2022-09-23T06:59:57;6.70;;;3.35;;
56267;SDS011;42175;46.930;9.532;2022-09-23T07:02:26;6.85;;;3.22;;
56267;SDS011;42175;46.930;9.532;2022-09-23T07:04:52;5.78;;;2.60;;
56267;SDS011;42175;46.930;9.532;2022-09-23T07:07:21;7.88;;;3.00;;
56267;SDS011;42175;46.930;9.532;2022-09-23T07:09:47;7.18;;;2.70;;
56267;SDS011;42175;46.930;9.532;2022-09-23T07:12:13;7.15;;;3.17;;
56267;SDS011;42175;46.930;9.532;2022-09-23T07:14:39;12.48;;;3.42;;
56267;SDS011;42175;46.930;9.532;2022-09-23T07:17:05;8.57;;;3.33;;
56267;SDS011;42175;46.930;9.532;2022-09-23T07:19:31;7.68;;;2.75;;
56267;SDS011;42175;46.930;9.532;2022-09-23T07:21:59;8.32;;;2.92;;
56267;SDS011;42175;46.930;9.532;2022-09-23T07:24:24;15.70;;;5.13;;
56267;SDS011;42175;46.930;9.532;2022-09-23T07:26:50;9.13;;;3.03;;
56267;SDS011;42175;46.930;9.532;2022-09-23T07:29:16;7.53;;;3.00;;
56267;SDS011;42175;46.930;9.532;2022-09-23T07:31:41;6.25;;;2.88;;
56267;SDS011;42175;46.930;9.532;2022-09-23T07:34:07;7.72;;;3.00;;
56267;SDS011;42175;46.930;9.532;2022-09-23T07:36:35;6.50;;;2.67;;
56267;SDS011;42175;46.930;9.532;2022-09-23T07:39:05;5.70;;;2.58;;
56267;SDS011;42175;46.930;9.532;2022-09-23T07:41:33;4.68;;;2.65;;
56267;SDS011;42175;46.930;9.532;2022-09-23T07:43:59;6.68;;;2.50;;
56267;SDS011;42175;46.930;9.532;2022-09-23T07:46:26;7.60;;;2.83;;
56267;SDS011;42175;46.930;9.532;2022-09-23T07:48:57;5.05;;;2.42;;
56267;SDS011;42175;46.930;9.532;2022-09-23T07:51:25;6.90;;;2.60;;
56267;SDS011;42175;46.930;9.532;2022-09-23T07:54:03;5.40;;;2.60;;
56267;SDS011;42175;46.930;9.532;2022-09-23T07:56:31;7.20;;;2.90;;
56267;SDS011;42175;46.930;9.532;2022-09-23T07:58:59;20.27;;;3.10;;
56267;SDS011;42175;46.930;9.532;2022-09-23T08:01:30;6.20;;;2.67;;
56267;SDS011;42175;46.930;9.532;2022-09-23T08:03:58;8.80;;;2.65;;
56267;SDS011;42175;46.930;9.532;2022-09-23T08:06:26;7.18;;;2.88;;
56267;SDS011;42175;46.930;9.532;2022-09-23T08:08:52;9.18;;;2.60;;
56267;SDS011;42175;46.930;9.532;2022-09-23T08:11:18;13.60;;;3.03;;
56267;SDS011;42175;46.930;9.532;2022-09-23T08:13:44;8.32;;;2.65;;
56267;SDS011;42175;46.930;9.532;2022-09-23T08:16:09;6.95;;;3.05;;
56267;SDS011;42175;46.930;9.532;2022-09-23T08:18:35;9.45;;;2.50;;
56267;SDS011;42175;46.930;9.532;2022-09-23T08:21:02;10.30;;;2.95;;
56267;SDS011;42175;46.930;9.532;2022-09-23T08:23:28;7.20;;;3.45;;
56267;SDS011;42175;46.930;9.532;2022-09-23T08:25:58;6.30;;;2.38;;
56267;SDS011;42175;46.930;9.532;2022-09-23T08:28:29;8.68;;;2.90;;
56267;SDS011;42175;46.930;9.532;2022-09-23T08:30:58;9.05;;;2.63;;
56267;SDS011;42175;46.930;9.532;2022-09-23T08:33:24;5.93;;;2.22;;
56267;SDS011;42175;46.930;9.532;2022-09-23T08:35:50;8.32;;;2.78;;
56267;SDS011;42175;46.930;9.532;2022-09-23T08:38:17;6.85;;;2.60;;
56267;SDS011;42175;46.930;9.532;2022-09-23T08:40:44;6.47;;;2.78;;
56267;SDS011;42175;46.930;9.532;2022-09-23T08:43:18;12.30;;;3.38;;
56267;SDS011;42175;46.930;9.532;2022-09-23T08:45:53;4.78;;;2.40;;
56267;SDS011;42175;46.930;9.532;2022-09-23T08:48:29;6.10;;;2.65;;
56267;SDS011;42175;46.930;9.532;2022-09-23T08:51:01;8.20;;;2.35;;
56267;SDS011;42175;46.930;9.532;2022-09-23T08:53:34;6.20;;;2.80;;
56267;SDS011;42175;46.930;9.532;2022-09-23T08:56:03;6.18;;;2.78;;
56267;SDS011;42175;46.930;9.532;2022-09-23T09:04:59;6.43;;;2.40;;
56267;SDS011;42175;46.930;9.532;2022-09-23T09:14:56;9.88;;;2.75;;
56267;SDS011;42175;46.930;9.532;2022-09-23T09:23:21;8.82;;;2.38;;
56267;SDS011;42175;46.930;9.532;2022-09-23T09:26:00;5.70;;;2.42;;
56267;SDS011;42175;46.930;9.532;2022-09-23T09:28:37;13.43;;;2.40;;
56267;SDS011;42175;46.930;9.532;2022-09-23T09:36:47;7.40;;;2.60;;
56267;SDS011;42175;46.930;9.532;2022-09-23T09:39:35;7.22;;;2.35;;
56267;SDS011;42175;46.930;9.532;2022-09-23T09:42:02;5.22;;;2.10;;
56267;SDS011;42175;46.930;9.532;2022-09-23T09:44:31;6.18;;;2.30;;
56267;SDS011;42175;46.930;9.532;2022-09-23T09:50:11;6.53;;;2.17;;
56267;SDS011;42175;46.930;9.532;2022-09-23T09:52:44;6.47;;;2.58;;
56267;SDS011;42175;46.930;9.532;2022-09-23T10:02:54;10.57;;;2.63;;
56267;SDS011;42175;46.930;9.532;2022-09-23T10:08:30;10.10;;;2.33;;
56267;SDS011;42175;46.930;9.532;2022-09-23T10:13:24;6.53;;;2.50;;
56267;SDS011;42175;46.930;9.532;2022-09-23T10:15:58;5.75;;;2.25;;
56267;SDS011;42175;46.930;9.532;2022-09-23T10:18:29;8.07;;;2.53;;
56267;SDS011;42175;46.930;9.532;2022-09-23T10:23:33;4.35;;;2.17;;
56267;SDS011;42175;46.930;9.532;2022-09-23T10:26:05;5.00;;;2.50;;
56267;SDS011;42175;46.930;9.532;2022-09-23T10:31:27;4.90;;;1.80;;
56267;SDS011;42175;46.930;9.532;2022-09-23T10:33:58;5.85;;;2.30;;
56267;SDS011;42175;46.930;9.532;2022-09-23T10:36:47;8.43;;;3.40;;
56267;SDS011;42175;46.930;9.532;2022-09-23T10:39:39;9.40;;;2.55;;
56267;SDS011;42175;46.930;9.532;2022-09-23T10:42:32;8.15;;;2.70;;
56267;SDS011;42175;46.930;9.532;2022-09-23T10:45:38;7.95;;;2.70;;
56267;SDS011;42175;46.930;9.532;2022-09-23T10:50:54;10.75;;;2.47;;
56267;SDS011;42175;46.930;9.532;2022-09-23T10:53:28;8.43;;;2.33;;
56267;SDS011;42175;46.930;9.532;2022-09-23T10:56:23;6.43;;;2.13;;
56267;SDS011;42175;46.930;9.532;2022-09-23T11:01:50;6.55;;;2.05;;
56267;SDS011;42175;46.930;9.532;2022-09-23T11:12:34;4.78;;;2.05;;
56267;SDS011;42175;46.930;9.532;2022-09-23T11:15:43;10.55;;;2.47;;
56267;SDS011;42175;46.930;9.532;2022-09-23T11:20:54;7.15;;;2.63;;
56267;SDS011;42175;46.930;9.532;2022-09-23T11:35:20;6.22;;;2.20;;
56267;SDS011;42175;46.930;9.532;2022-09-23T11:37:51;6.72;;;2.05;;
56267;SDS011;42175;46.930;9.532;2022-09-23T11:40:23;4.45;;;1.80;;
56267;SDS011;42175;46.930;9.532;2022-09-23T11:42:59;3.80;;;2.10;;
56267;SDS011;42175;46.930;9.532;2022-09-23T11:45:48;11.80;;;2.10;;
56267;SDS011;42175;46.930;9.532;2022-09-23T11:48:17;7.55;;;2.63;;
56267;SDS011;42175;46.930;9.532;2022-09-23T11:53:42;5.50;;;2.03;;
56267;SDS011;42175;46.930;9.532;2022-09-23T11:56:22;3.75;;;1.90;;
56267;SDS011;42175;46.930;9.532;2022-09-23T12:01:29;7.32;;;2.38;;
56267;SDS011;42175;46.930;9.532;2022-09-23T12:06:41;5.15;;;2.75;;
56267;SDS011;42175;46.930;9.532;2022-09-23T12:09:24;3.25;;;1.77;;
56267;SDS011;42175;46.930;9.532;2022-09-23T12:17:23;4.97;;;2.55;;
56267;SDS011;42175;46.930;9.532;2022-09-23T12:20:04;4.97;;;2.13;;
56267;SDS011;42175;46.930;9.532;2022-09-23T12:25:33;3.50;;;1.88;;
56267;SDS011;42175;46.930;9.532;2022-09-23T12:28:12;5.90;;;2.30;;
56267;SDS011;42175;46.930;9.532;2022-09-23T12:30:43;8.52;;;2.03;;
56267;SDS011;42175;46.930;9.532;2022-09-23T12:33:25;6.05;;;1.85;;
56267;SDS011;42175;46.930;9.532;2022-09-23T12:38:40;3.70;;;1.90;;
56267;SDS011;42175;46.930;9.532;2022-09-23T12:41:18;2.70;;;1.75;;
56267;SDS011;42175;46.930;9.532;2022-09-23T12:43:54;5.53;;;2.25;;
56267;SDS011;42175;46.930;9.532;2022-09-23T12:46:24;4.65;;;1.95;;
56267;SDS011;42175;46.930;9.532;2022-09-23T12:51:21;6.20;;;2.00;;
56267;SDS011;42175;46.930;9.532;2022-09-23T12:53:52;7.63;;;2.33;;
56267;SDS011;42175;46.930;9.532;2022-09-23T12:56:24;5.40;;;2.10;;
56267;SDS011;42175;46.930;9.532;2022-09-23T13:01:22;7.22;;;2.13;;
56267;SDS011;42175;46.930;9.532;2022-09-23T13:03:51;5.53;;;1.80;;
56267;SDS011;42175;46.930;9.532;2022-09-23T13:06:41;3.17;;;2.00;;
56267;SDS011;42175;46.930;9.532;2022-09-23T13:09:23;5.55;;;2.25;;
56267;SDS011;42175;46.930;9.532;2022-09-23T13:11:52;5.10;;;1.98;;
56267;SDS011;42175;46.930;9.532;2022-09-23T13:14:24;3.22;;;1.80;;
56267;SDS011;42175;46.930;9.532;2022-09-23T13:16:51;4.18;;;2.10;;
56267;SDS011;42175;46.930;9.532;2022-09-23T13:26:49;4.25;;;2.03;;
56267;SDS011;42175;46.930;9.532;2022-09-23T13:32:18;4.57;;;2.00;;
56267;SDS011;42175;46.930;9.532;2022-09-23T13:34:46;4.30;;;2.08;;
56267;SDS011;42175;46.930;9.532;2022-09-23T13:37:28;2.17;;;1.60;;
56267;SDS011;42175;46.930;9.532;2022-09-23T13:42:58;5.93;;;1.85;;
56267;SDS011;42175;46.930;9.532;2022-09-23T13:45:27;5.55;;;2.03;;
56267;SDS011;42175;46.930;9.532;2022-09-23T13:47:59;3.83;;;1.90;;
56267;SDS011;42175;46.930;9.532;2022-09-23T13:50:30;8.38;;;2.00;;
56267;SDS011;42175;46.930;9.532;2022-09-23T13:52:57;6.50;;;2.08;;
56267;SDS011;42175;46.930;9.532;2022-09-23T13:55:30;5.07;;;1.90;;
56267;SDS011;42175;46.930;9.532;2022-09-23T13:58:04;5.07;;;2.20;;
56267;SDS011;42175;46.930;9.532;2022-09-23T14:00:43;4.40;;;2.05;;
56267;SDS011;42175;46.930;9.532;2022-09-23T14:05:54;3.10;;;2.08;;
56267;SDS011;42175;46.930;9.532;2022-09-23T14:08:21;4.50;;;2.35;;
56267;SDS011;42175;46.930;9.532;2022-09-23T14:10:48;4.20;;;2.10;;
56267;SDS011;42175;46.930;9.532;2022-09-23T14:13:25;3.45;;;2.10;;
56267;SDS011;42175;46.930;9.532;2022-09-23T14:15:54;4.88;;;2.20;;
56267;SDS011;42175;46.930;9.532;2022-09-23T14:18:29;5.88;;;1.90;;
56267;SDS011;42175;46.930;9.532;2022-09-23T14:21:02;3.75;;;1.85;;
56267;SDS011;42175;46.930;9.532;2022-09-23T14:23:29;5.30;;;1.95;;
56267;SDS011;42175;46.930;9.532;2022-09-23T14:25:55;8.13;;;2.35;;
56267;SDS011;42175;46.930;9.532;2022-09-23T14:28:24;4.93;;;2.38;;
56267;SDS011;42175;46.930;9.532;2022-09-23T14:30:52;3.15;;;2.10;;
56267;SDS011;42175;46.930;9.532;2022-09-23T14:33:22;9.15;;;2.03;;
56267;SDS011;42175;46.930;9.532;2022-09-23T14:35:55;5.38;;;1.80;;
56267;SDS011;42175;46.930;9.532;2022-09-23T14:39:08;4.68;;;2.13;;
56267;SDS011;42175;46.930;9.532;2022-09-23T14:41:37;11.35;;;2.08;;
56267;SDS011;42175;46.930;9.532;2022-09-23T14:44:26;3.95;;;2.20;;
56267;SDS011;42175;46.930;9.532;2022-09-23T14:46:56;5.38;;;2.22;;
56267;SDS011;42175;46.930;9.532;2022-09-23T14:49:23;5.07;;;2.47;;
56267;SDS011;42175;46.930;9.532;2022-09-23T14:51:51;5.97;;;2.17;;
56267;SDS011;42175;46.930;9.532;2022-09-23T14:59:49;5.85;;;2.03;;
56267;SDS011;42175;46.930;9.532;2022-09-23T15:07:54;11.90;;;1.85;;
56267;SDS011;42175;46.930;9.532;2022-09-23T15:10:25;5.28;;;2.20;;
56267;SDS011;42175;46.930;9.532;2022-09-23T15:12:53;8.13;;;2.60;;
56267;SDS011;42175;46.930;9.532;2022-09-23T15:15:27;5.88;;;1.90;;
56267;SDS011;42175;46.930;9.532;2022-09-23T15:17:53;5.18;;;2.05;;
56267;SDS011;42175;46.930;9.532;2022-09-23T15:22:51;6.47;;;2.63;;
56267;SDS011;42175;46.930;9.532;2022-09-23T15:25:25;4.30;;;1.90;;
56267;SDS011;42175;46.930;9.532;2022-09-23T15:30:37;9.15;;;2.30;;
56267;SDS011;42175;46.930;9.532;2022-09-23T15:33:03;4.15;;;2.15;;
56267;SDS011;42175;46.930;9.532;2022-09-23T15:35:30;7.53;;;2.00;;
56267;SDS011;42175;46.930;9.532;2022-09-23T15:37:57;5.53;;;2.08;;
56267;SDS011;42175;46.930;9.532;2022-09-23T15:42:55;5.20;;;2.08;;
56267;SDS011;42175;46.930;9.532;2022-09-23T15:48:26;9.88;;;1.90;;
56267;SDS011;42175;46.930;9.532;2022-09-23T15:53:26;5.10;;;2.45;;
56267;SDS011;42175;46.930;9.532;2022-09-23T15:55:52;6.40;;;2.03;;
56267;SDS011;42175;46.930;9.532;2022-09-23T15:58:18;4.82;;;1.90;;
56267;SDS011;42175;46.930;9.532;2022-09-23T16:00:46;4.88;;;2.15;;
56267;SDS011;42175;46.930;9.532;2022-09-23T16:03:16;4.97;;;2.28;;
56267;SDS011;42175;46.930;9.532;2022-09-23T16:05:45;3.53;;;1.80;;
56267;SDS011;42175;46.930;9.532;2022-09-23T16:08:13;6.47;;;2.10;;
56267;SDS011;42175;46.930;9.532;2022-09-23T16:10:40;5.22;;;2.35;;
56267;SDS011;42175;46.930;9.532;2022-09-23T16:13:11;8.73;;;2.55;;
56267;SDS011;42175;46.930;9.532;2022-09-23T16:15:37;4.53;;;2.10;;
56267;SDS011;42175;46.930;9.532;2022-09-23T16:18:03;4.97;;;1.85;;
56267;SDS011;42175;46.930;9.532;2022-09-23T16:20:30;4.93;;;2.22;;
56267;SDS011;42175;46.930;9.532;2022-09-23T16:23:07;7.43;;;2.17;;
56267;SDS011;42175;46.930;9.532;2022-09-23T16:26:02;4.55;;;2.08;;
56267;SDS011;42175;46.930;9.532;2022-09-23T16:28:31;8.93;;;2.70;;
56267;SDS011;42175;46.930;9.532;2022-09-23T16:30:57;7.32;;;2.20;;
56267;SDS011;42175;46.930;9.532;2022-09-23T16:33:22;8.98;;;2.20;;
56267;SDS011;42175;46.930;9.532;2022-09-23T16:35:48;10.10;;;2.00;;
56267;SDS011;42175;46.930;9.532;2022-09-23T16:38:15;4.35;;;2.13;;
56267;SDS011;42175;46.930;9.532;2022-09-23T16:40:42;8.00;;;2.63;;
56267;SDS011;42175;46.930;9.532;2022-09-23T16:43:08;7.88;;;2.47;;
56267;SDS011;42175;46.930;9.532;2022-09-23T16:45:33;18.52;;;2.55;;
56267;SDS011;42175;46.930;9.532;2022-09-23T16:47:59;5.50;;;2.15;;
56267;SDS011;42175;46.930;9.532;2022-09-23T16:50:25;5.97;;;2.30;;
56267;SDS011;42175;46.930;9.532;2022-09-23T16:52:51;8.60;;;2.35;;
56267;SDS011;42175;46.930;9.532;2022-09-23T16:55:20;10.20;;;2.45;;
56267;SDS011;42175;46.930;9.532;2022-09-23T16:57:48;9.55;;;2.20;;
56267;SDS011;42175;46.930;9.532;2022-09-23T17:00:14;4.70;;;2.40;;
56267;SDS011;42175;46.930;9.532;2022-09-23T17:02:59;78.25;;;19.63;;
56267;SDS011;42175;46.930;9.532;2022-09-23T17:05:44;54.47;;;13.20;;
56267;SDS011;42175;46.930;9.532;2022-09-23T17:08:11;62.42;;;16.10;;
56267;SDS011;42175;46.930;9.532;2022-09-23T17:10:38;74.55;;;17.70;;
56267;SDS011;42175;46.930;9.532;2022-09-23T17:13:08;55.55;;;15.13;;
56267;SDS011;42175;46.930;9.532;2022-09-23T17:15:36;62.08;;;14.20;;
56267;SDS011;42175;46.930;9.532;2022-09-23T17:18:03;51.20;;;16.40;;
56267;SDS011;42175;46.930;9.532;2022-09-23T17:20:30;62.53;;;18.38;;
56267;SDS011;42175;46.930;9.532;2022-09-23T17:22:56;57.63;;;14.90;;
56267;SDS011;42175;46.930;9.532;2022-09-23T17:25:21;55.92;;;16.00;;
56267;SDS011;42175;46.930;9.532;2022-09-23T17:27:48;48.30;;;14.90;;
56267;SDS011;42175;46.930;9.532;2022-09-23T17:30:15;46.50;;;13.10;;
56267;SDS011;42175;46.930;9.532;2022-09-23T17:32:41;44.47;;;13.75;;
56267;SDS011;42175;46.930;9.532;2022-09-23T17:35:07;45.85;;;13.45;;
56267;SDS011;42175;46.930;9.532;2022-09-23T17:37:34;38.00;;;12.13;;
56267;SDS011;42175;46.930;9.532;2022-09-23T17:40:00;30.65;;;10.63;;
56267;SDS011;42175;46.930;9.532;2022-09-23T17:42:27;39.40;;;11.60;;
56267;SDS011;42175;46.930;9.532;2022-09-23T17:44:53;34.45;;;12.20;;
56267;SDS011;42175;46.930;9.532;2022-09-23T17:47:23;41.83;;;10.38;;
56267;SDS011;42175;46.930;9.532;2022-09-23T17:49:50;30.73;;;10.25;;
56267;SDS011;42175;46.930;9.532;2022-09-23T17:52:16;29.20;;;9.32;;
56267;SDS011;42175;46.930;9.532;2022-09-23T17:54:43;37.15;;;11.18;;
56267;SDS011;42175;46.930;9.532;2022-09-23T17:57:09;33.35;;;11.18;;
56267;SDS011;42175;46.930;9.532;2022-09-23T17:59:36;31.80;;;11.40;;
56267;SDS011;42175;46.930;9.532;2022-09-23T18:02:02;29.23;;;10.88;;
56267;SDS011;42175;46.930;9.532;2022-09-23T18:04:27;39.22;;;11.65;;
56267;SDS011;42175;46.930;9.532;2022-09-23T18:06:53;27.65;;;10.23;;
56267;SDS011;42175;46.930;9.532;2022-09-23T18:09:19;35.63;;;11.00;;